Paso Robles, California
Current Conditions -  °F | °C
As of 4:53 AM on Tuesday 21 Oct 2014 (Local Time) from KPRB Reporting Station
Overcast Overcast  
Wind Chill: 14°   Ceiling: 3300
Heat Index: 14°   Visibility: 10mi
Dew Point: 10°   Wind: 13mph
Humidity: 77%   Direction: 320°NW
Pressure: 30.03"   Gusts: NA
Location:  35.67°N, 120.63°W
Report Text: KPRB 211153Z AUTO 32011KT 10SM OVC033 14/10 A3003 RMK AO2 SLP162 T01390100 10156 20128 56005 TSNO
Loading
Personal Weather Stations






























Interactive Weather Map
Tropical Storm Tracking
New forecast layout! Learn more

10-Day Weather Forecast

Advertisements
Track Severe Weather on mobile